Terminal Aerodrome Forecast
Issued by NWS Twin Cities, MN

Home | Current Version | Previous Version | Graphics & Text | Print | Product List | Glossary On
Versions: 1 2 3 4 5 6 7 8 9 10 11 12 13 14 15 16
580
FTUS43 KMPX 240529
TAFEAU
TAF
KEAU 240529Z 2406/2506 VRB03KT P6SM OVC028
     FM240900 16004KT P6SM VCSH SCT007 OVC014
      TEMPO 2410/2412 2SM TSRA BKN007CB
     FM241200 20004KT P6SM VCSH OVC005
     FM241400 27007KT P6SM BKN010 OVC250
     FM241600 28010G17KT P6SM SCT020 BKN250
     FM250100 27006KT P6SM FEW250=

USA.gov is the U.S. government's official web portal to all federal, state and local government web resources and services.